createdAt,value
2018-03-11T00:01:19.427Z,33.77
2018-03-11T00:03:47.564Z,33.60
2018-03-11T00:06:15.701Z,33.40
2018-03-11T00:08:43.827Z,33.47
2018-03-11T00:11:12.794Z,32.97
2018-03-11T00:13:40.916Z,33.47
2018-03-11T00:16:09.818Z,34.27
2018-03-11T00:18:37.952Z,34.43
2018-03-11T00:21:06.060Z,33.10
2018-03-11T00:23:34.183Z,32.23
2018-03-11T00:26:02.274Z,33.10
2018-03-11T00:28:30.394Z,33.20
2018-03-11T00:30:58.478Z,32.30
2018-03-11T00:33:26.660Z,31.83
2018-03-11T00:35:54.829Z,33.70
2018-03-11T00:38:22.975Z,33.47
2018-03-11T00:40:51.866Z,34.30
2018-03-11T00:43:19.981Z,31.43
2018-03-11T00:45:48.074Z,32.03
2018-03-11T00:48:16.177Z,34.60
2018-03-11T00:50:44.967Z,33.60
2018-03-11T00:53:13.400Z,34.10
2018-03-11T00:55:46.738Z,32.73
2018-03-11T00:58:15.003Z,33.20
2018-03-11T01:00:43.506Z,33.57
2018-03-11T01:03:12.434Z,31.77
2018-03-11T01:05:40.568Z,30.83
2018-03-11T01:08:08.655Z,32.80
2018-03-11T01:10:36.748Z,33.97
2018-03-11T01:13:04.972Z,32.57
2018-03-11T01:15:33.860Z,30.80
2018-03-11T01:18:02.723Z,32.20
2018-03-11T01:20:30.847Z,32.00
2018-03-11T01:22:58.950Z,33.50
2018-03-11T01:25:27.205Z,32.23
2018-03-11T01:27:55.331Z,32.80
2018-03-11T01:30:23.429Z,32.57
2018-03-11T01:32:51.569Z,32.87
2018-03-11T01:35:20.436Z,33.40
2018-03-11T01:37:48.604Z,33.97
2018-03-11T01:40:16.744Z,34.00
2018-03-11T01:42:45.886Z,34.20
2018-03-11T01:45:14.220Z,32.90
2018-03-11T01:47:42.300Z,32.80
2018-03-11T01:50:10.384Z,34.20
2018-03-11T01:55:47.170Z,31.30
2018-03-11T01:58:15.289Z,33.50
2018-03-11T02:00:43.891Z,33.23
2018-03-11T02:03:11.968Z,31.13
2018-03-11T02:05:40.118Z,31.23
2018-03-11T02:08:08.231Z,32.50
2018-03-11T02:10:36.311Z,31.90
2018-03-11T02:13:04.454Z,32.00
2018-03-11T02:15:32.560Z,32.60
2018-03-11T02:18:00.649Z,31.77
2018-03-11T02:20:28.743Z,32.33
2018-03-11T02:22:56.839Z,31.60
2018-03-11T02:25:24.940Z,32.87
2018-03-11T02:27:53.045Z,30.57
2018-03-11T02:30:22.140Z,31.23
2018-03-11T02:32:50.240Z,31.30
2018-03-11T02:35:19.105Z,31.17
2018-03-11T02:37:47.225Z,30.13
2018-03-11T02:40:16.195Z,30.10
2018-03-11T02:42:44.318Z,31.40
2018-03-11T02:45:12.425Z,30.70
2018-03-11T02:47:43.669Z,33.17
2018-03-11T02:50:12.593Z,32.07
2018-03-11T02:52:40.691Z,33.40
2018-03-11T02:55:08.797Z,30.53
2018-03-11T02:57:36.884Z,31.53
2018-03-11T03:00:04.985Z,31.83
2018-03-11T03:02:33.851Z,30.47
2018-03-11T03:05:02.072Z,30.40
2018-03-11T03:07:31.009Z,32.57
2018-03-11T03:09:59.174Z,30.07
2018-03-11T03:12:27.348Z,31.50
2018-03-11T03:14:56.187Z,30.70
2018-03-11T03:17:24.310Z,30.80
2018-03-11T03:19:52.395Z,31.73
2018-03-11T03:22:20.498Z,30.73
2018-03-11T03:24:50.062Z,30.13
2018-03-11T03:27:18.162Z,30.30
2018-03-11T03:29:46.254Z,29.47
2018-03-11T03:32:14.595Z,30.80
2018-03-11T03:34:42.678Z,28.10
2018-03-11T03:37:10.787Z,28.90
2018-03-11T03:39:38.874Z,27.13
2018-03-11T03:42:06.999Z,28.60
2018-03-11T03:44:35.177Z,29.70
2018-03-11T03:47:03.284Z,27.87
2018-03-11T03:49:32.143Z,28.20
2018-03-11T03:52:00.390Z,28.90
2018-03-11T03:54:28.475Z,27.33
2018-03-11T03:56:56.595Z,29.00
2018-03-11T03:59:24.698Z,28.87
2018-03-11T04:01:52.784Z,28.87
2018-03-11T04:04:20.909Z,28.90
2018-03-11T04:06:50.048Z,29.23
2018-03-11T04:09:18.236Z,27.07
2018-03-11T04:11:46.337Z,27.40
2018-03-11T04:14:14.477Z,28.10
2018-03-11T04:16:42.583Z,29.00
2018-03-11T04:19:10.716Z,26.53
2018-03-11T04:21:38.794Z,28.03
2018-03-11T04:24:07.108Z,26.30
2018-03-11T04:26:35.323Z,28.50
2018-03-11T04:29:03.425Z,27.77
2018-03-11T04:31:31.517Z,28.17
2018-03-11T04:34:01.507Z,26.90
2018-03-11T04:36:29.619Z,27.17
2018-03-11T04:38:57.759Z,26.70
2018-03-11T04:41:26.842Z,25.77
2018-03-11T04:43:54.958Z,27.57
2018-03-11T04:46:23.033Z,28.40
2018-03-11T04:48:51.935Z,27.67
2018-03-11T04:51:20.023Z,26.23
2018-03-11T04:53:48.882Z,28.03
2018-03-11T04:56:16.977Z,26.37
2018-03-11T04:58:45.082Z,25.63
2018-03-11T05:01:13.940Z,27.20
2018-03-11T05:03:42.127Z,26.80
2018-03-11T05:06:10.256Z,26.93
2018-03-11T05:08:39.112Z,26.70
2018-03-11T05:11:07.218Z,24.97
2018-03-11T05:13:35.317Z,26.80
2018-03-11T05:16:03.405Z,25.70
2018-03-11T05:18:32.270Z,27.47
2018-03-11T05:21:00.541Z,26.57
2018-03-11T05:23:28.675Z,25.60
2018-03-11T05:25:56.821Z,26.37
2018-03-11T05:28:24.996Z,25.67
2018-03-11T05:30:53.129Z,26.40
2018-03-11T05:33:21.268Z,25.87
2018-03-11T05:35:49.336Z,26.30
2018-03-11T05:38:17.423Z,26.17
2018-03-11T05:40:45.859Z,26.10
2018-03-11T05:43:13.950Z,27.33
2018-03-11T05:45:42.096Z,27.30
2018-03-11T05:48:10.207Z,25.47
2018-03-11T05:50:38.347Z,26.00
2018-03-11T05:53:06.860Z,27.33
2018-03-11T05:55:34.960Z,23.93
2018-03-11T05:58:03.078Z,24.13
2018-03-11T06:00:31.180Z,28.60
2018-03-11T06:03:00.063Z,27.60
2018-03-11T06:05:29.018Z,26.23
2018-03-11T06:07:57.132Z,26.77
2018-03-11T06:10:25.240Z,26.50
2018-03-11T06:12:54.129Z,27.30
2018-03-11T06:15:22.227Z,25.73
2018-03-11T06:17:51.083Z,25.37
2018-03-11T06:20:19.191Z,23.90
2018-03-11T06:22:47.286Z,25.20
2018-03-11T06:25:15.381Z,23.33
2018-03-11T06:27:43.465Z,22.67
2018-03-11T06:30:12.330Z,24.43
2018-03-11T06:32:40.410Z,25.00
2018-03-11T06:35:08.491Z,23.80
2018-03-11T06:37:36.614Z,23.67
2018-03-11T06:40:05.491Z,22.60
2018-03-11T06:42:33.830Z,25.83
2018-03-11T06:45:01.979Z,24.00
2018-03-11T06:47:30.126Z,25.30
2018-03-11T06:49:58.999Z,23.00
2018-03-11T06:52:27.090Z,24.53
2018-03-11T06:54:55.177Z,23.83
2018-03-11T06:57:23.280Z,24.67
2018-03-11T06:59:52.119Z,23.50
2018-03-11T07:02:20.251Z,23.40
2018-03-11T07:04:48.367Z,23.83
2018-03-11T07:07:16.552Z,23.00
2018-03-11T07:09:44.653Z,22.10
2018-03-11T07:12:13.558Z,22.17
2018-03-11T07:14:41.637Z,23.60
2018-03-11T07:17:09.725Z,22.30
2018-03-11T07:19:37.843Z,21.97
2018-03-11T07:22:06.199Z,22.30
2018-03-11T07:24:34.323Z,23.00
2018-03-11T07:27:02.444Z,21.50
2018-03-11T07:29:30.616Z,20.77
2018-03-11T07:31:58.756Z,22.70
2018-03-11T07:34:27.617Z,21.80
2018-03-11T07:36:55.703Z,21.40
2018-03-11T07:39:23.793Z,21.87
2018-03-11T07:41:52.190Z,21.27
2018-03-11T07:44:20.273Z,20.50
2018-03-11T07:46:48.369Z,21.53
2018-03-11T07:49:16.535Z,19.77
2018-03-11T07:51:46.028Z,19.53
2018-03-11T07:54:14.119Z,19.40
2018-03-11T07:56:42.222Z,20.90
2018-03-11T07:59:10.347Z,20.13
2018-03-11T08:01:39.258Z,19.23
2018-03-11T08:04:07.452Z,19.10
2018-03-11T08:06:35.570Z,19.10
2018-03-11T08:09:03.779Z,18.27
2018-03-11T08:11:31.928Z,18.47
2018-03-11T08:14:00.027Z,19.13
2018-03-11T08:16:28.131Z,18.77
2018-03-11T08:18:56.254Z,17.70
2018-03-11T08:21:24.399Z,17.53
2018-03-11T08:23:52.519Z,17.77
2018-03-11T08:26:21.387Z,17.60
2018-03-11T08:28:50.049Z,18.43
2018-03-11T08:31:18.269Z,18.03
2018-03-11T08:33:46.480Z,18.77
2018-03-11T08:36:15.367Z,17.20
2018-03-11T08:38:44.285Z,16.93
2018-03-11T08:41:14.068Z,17.63
2018-03-11T08:43:42.213Z,18.37
2018-03-11T08:46:10.357Z,16.83
2018-03-11T08:48:38.479Z,18.00
2018-03-11T08:51:06.610Z,18.00
2018-03-11T08:53:34.852Z,18.30
2018-03-11T08:56:02.975Z,18.03
2018-03-11T08:58:31.318Z,18.77
2018-03-11T09:01:00.198Z,17.57
2018-03-11T09:03:29.706Z,17.60
2018-03-11T09:05:58.604Z,16.73
2018-03-11T09:08:26.830Z,16.87
2018-03-11T09:10:54.957Z,18.67
2018-03-11T09:13:23.087Z,16.27
2018-03-11T09:15:51.974Z,16.90
2018-03-11T09:18:20.103Z,16.93
2018-03-11T09:20:48.223Z,16.30
2018-03-11T09:23:16.393Z,17.77
2018-03-11T09:25:44.563Z,16.97
2018-03-11T09:28:12.780Z,18.03
2018-03-11T09:30:40.964Z,16.37
2018-03-11T09:33:09.178Z,17.80
2018-03-11T09:35:37.347Z,18.60
2018-03-11T09:38:05.472Z,16.37
2018-03-11T09:40:33.570Z,15.93
2018-03-11T09:43:01.732Z,16.17
2018-03-11T09:45:30.643Z,18.80
2018-03-11T09:47:59.587Z,16.60
2018-03-11T09:50:27.713Z,17.00
2018-03-11T09:52:55.933Z,16.90
2018-03-11T09:55:26.376Z,16.00
2018-03-11T09:57:55.145Z,16.60
2018-03-11T10:00:23.303Z,16.30
2018-03-11T10:02:52.168Z,16.70
2018-03-11T10:05:21.119Z,16.33
2018-03-11T10:07:49.446Z,15.63
2018-03-11T10:10:18.414Z,14.90
2018-03-11T10:12:46.548Z,15.90
2018-03-11T10:15:15.080Z,15.87
2018-03-11T10:17:43.285Z,18.80
2018-03-11T10:20:11.481Z,16.17
2018-03-11T10:22:39.733Z,16.57
2018-03-11T10:25:07.838Z,15.60
2018-03-11T10:27:39.840Z,15.60
2018-03-11T10:30:08.767Z,15.47
2018-03-11T10:32:36.821Z,15.70
2018-03-11T10:35:04.973Z,15.40
2018-03-11T10:37:33.102Z,14.03
2018-03-11T10:40:01.981Z,16.07
2018-03-11T10:42:30.264Z,14.47
2018-03-11T10:44:58.374Z,15.10
2018-03-11T10:47:27.285Z,14.90
2018-03-11T10:49:55.475Z,13.77
2018-03-11T10:52:23.764Z,14.70
2018-03-11T10:54:51.889Z,13.40
2018-03-11T10:57:20.143Z,14.30
2018-03-11T10:59:48.240Z,14.10
2018-03-11T11:02:19.076Z,13.33
2018-03-11T11:04:52.995Z,13.63
2018-03-11T11:07:21.429Z,12.73
2018-03-11T11:09:49.578Z,13.10
2018-03-11T11:12:17.770Z,11.47
2018-03-11T11:14:46.613Z,13.43
2018-03-11T11:17:14.713Z,12.07
2018-03-11T11:19:43.600Z,12.83
2018-03-11T11:22:11.835Z,13.90
2018-03-11T11:24:39.955Z,13.07
2018-03-11T11:27:08.094Z,13.53
2018-03-11T11:29:36.262Z,12.73
2018-03-11T11:32:04.447Z,12.60
2018-03-11T11:34:32.587Z,12.13
2018-03-11T11:37:00.842Z,12.00
2018-03-11T11:39:28.993Z,11.07
2018-03-11T11:41:57.807Z,10.97
2018-03-11T11:44:25.890Z,11.03
2018-03-11T11:46:54.008Z,11.07
2018-03-11T11:49:22.146Z,11.23
2018-03-11T11:51:50.388Z,9.50
2018-03-11T11:54:18.562Z,9.30
2018-03-11T11:56:47.481Z,8.80
2018-03-11T11:59:15.615Z,9.60
2018-03-11T12:01:43.754Z,8.43
2018-03-11T12:04:11.910Z,8.37
2018-03-11T12:06:40.258Z,7.53
2018-03-11T12:09:08.423Z,6.83
2018-03-11T12:11:36.713Z,9.20
2018-03-11T12:14:04.904Z,6.87
2018-03-11T12:16:33.134Z,6.60
2018-03-11T12:19:01.271Z,6.30
2018-03-11T12:21:29.364Z,7.20
2018-03-11T12:23:57.496Z,7.20
2018-03-11T12:26:25.796Z,6.87
2018-03-11T12:28:54.712Z,6.40
2018-03-11T12:31:22.897Z,6.60
2018-03-11T12:33:51.465Z,7.00
2018-03-11T12:36:22.009Z,6.43
2018-03-11T12:38:50.236Z,6.20
2018-03-11T12:41:18.323Z,5.37
2018-03-11T12:43:46.440Z,6.00
2018-03-11T12:46:14.518Z,5.13
2018-03-11T12:48:42.634Z,4.70
2018-03-11T12:51:10.777Z,5.60
2018-03-11T12:53:40.396Z,5.40
2018-03-11T12:56:08.595Z,5.90
2018-03-11T12:58:36.883Z,5.33
2018-03-11T13:01:05.103Z,5.97
2018-03-11T13:03:33.216Z,5.17
2018-03-11T13:06:02.326Z,5.10
2018-03-11T13:08:30.414Z,5.60
2018-03-11T13:10:58.672Z,5.10
2018-03-11T13:13:27.573Z,5.03
2018-03-11T13:15:55.911Z,5.50
2018-03-11T13:18:24.024Z,4.33
2018-03-11T13:21:03.681Z,4.40
2018-03-11T13:23:31.829Z,3.93
2018-03-11T13:26:00.376Z,3.73
2018-03-11T13:28:41.132Z,4.00
2018-03-11T13:31:09.497Z,3.67
2018-03-11T13:33:49.466Z,3.63
2018-03-11T13:36:17.656Z,4.00
2018-03-11T13:38:57.586Z,4.30
2018-03-11T13:41:25.722Z,3.77
2018-03-11T13:43:54.608Z,3.13
2018-03-11T13:46:34.488Z,3.57
2018-03-11T13:49:03.391Z,2.50
2018-03-11T13:51:47.152Z,3.30
2018-03-11T13:54:15.240Z,3.70
2018-03-11T13:56:43.540Z,2.67
2018-03-11T13:59:11.659Z,3.47
2018-03-11T14:01:39.837Z,2.80
2018-03-11T14:04:08.011Z,3.00
2018-03-11T14:06:36.163Z,2.50
2018-03-11T14:09:05.125Z,3.10
2018-03-11T14:11:33.225Z,3.27
2018-03-11T14:14:01.404Z,2.90
2018-03-11T14:16:29.537Z,3.43
2018-03-11T14:18:57.772Z,3.30
2018-03-11T14:21:25.866Z,2.83
2018-03-11T14:23:53.983Z,2.50
2018-03-11T14:26:22.180Z,3.10
2018-03-11T14:28:50.313Z,2.97
2018-03-11T14:31:18.417Z,2.43
2018-03-11T14:33:46.532Z,2.70
2018-03-11T14:36:14.737Z,2.43
2018-03-11T14:38:42.874Z,4.93
2018-03-11T14:41:11.083Z,3.10
2018-03-11T14:43:39.995Z,3.23
2018-03-11T14:46:08.152Z,3.00
2018-03-11T14:48:36.268Z,3.10
2018-03-11T14:51:04.418Z,2.90
2018-03-11T14:53:32.679Z,3.53
2018-03-11T14:56:00.829Z,3.60
2018-03-11T14:58:29.963Z,4.00
2018-03-11T15:00:58.066Z,3.80
2018-03-11T15:03:26.169Z,4.07
2018-03-11T15:05:54.298Z,3.80
2018-03-11T15:08:22.428Z,3.20
2018-03-11T15:10:50.835Z,4.17
2018-03-11T15:13:18.942Z,3.70
2018-03-11T15:15:47.096Z,3.80
2018-03-11T15:18:15.210Z,3.80
2018-03-11T15:20:44.486Z,4.70
2018-03-11T15:23:12.614Z,4.00
2018-03-11T15:25:41.703Z,4.20
2018-03-11T15:28:09.867Z,4.00
2018-03-11T15:30:38.025Z,3.70
2018-03-11T15:33:06.188Z,4.10
2018-03-11T15:35:34.299Z,3.97
2018-03-11T15:38:02.406Z,3.67
2018-03-11T15:40:30.538Z,3.83
2018-03-11T15:42:58.628Z,4.20
2018-03-11T15:45:26.736Z,3.90
2018-03-11T15:47:54.891Z,3.93
2018-03-11T15:50:22.999Z,3.90
2018-03-11T15:52:51.240Z,3.17
2018-03-11T15:55:19.418Z,3.90
2018-03-11T15:57:47.572Z,4.40
2018-03-11T16:00:15.775Z,3.53
2018-03-11T16:02:43.892Z,3.53
2018-03-11T16:05:11.999Z,3.93
2018-03-11T16:07:40.129Z,3.33
2018-03-11T16:10:08.513Z,3.67
2018-03-11T16:12:36.760Z,4.33
2018-03-11T16:15:04.927Z,4.20
2018-03-11T16:17:33.011Z,4.50
2018-03-11T16:20:01.151Z,4.00
2018-03-11T16:22:29.254Z,5.17
2018-03-11T16:24:58.124Z,5.40
2018-03-11T16:27:26.416Z,5.63
2018-03-11T16:29:54.601Z,5.73
2018-03-11T16:32:22.740Z,5.63
2018-03-11T16:34:50.866Z,5.53
2018-03-11T16:37:19.150Z,5.57
2018-03-11T16:39:47.338Z,6.40
2018-03-11T16:42:15.437Z,6.23
2018-03-11T16:44:43.601Z,6.20
2018-03-11T16:47:11.817Z,5.93
2018-03-11T16:49:39.933Z,6.10
2018-03-11T16:52:08.827Z,7.80
2018-03-11T16:54:38.645Z,7.73
2018-03-11T16:57:08.354Z,7.50
2018-03-11T16:59:36.452Z,8.03
2018-03-11T17:02:05.463Z,7.40
2018-03-11T17:04:34.350Z,7.10
2018-03-11T17:07:02.512Z,7.93
2018-03-11T17:09:31.157Z,8.00
2018-03-11T17:12:00.031Z,7.70
2018-03-11T17:14:28.145Z,8.27
2018-03-11T17:16:57.095Z,8.17
2018-03-11T17:19:25.227Z,8.37
2018-03-11T17:21:54.114Z,8.63
2018-03-11T17:24:22.206Z,8.40
2018-03-11T17:26:50.537Z,8.93
2018-03-11T17:29:18.727Z,8.30
2018-03-11T17:31:46.845Z,8.63
2018-03-11T17:34:15.696Z,8.30
2018-03-11T17:36:43.930Z,7.83
2018-03-11T17:39:12.096Z,8.50
2018-03-11T17:41:40.320Z,8.00
2018-03-11T17:44:08.403Z,9.40
2018-03-11T17:46:36.577Z,8.73
2018-03-11T17:49:05.084Z,8.20
2018-03-11T17:51:33.191Z,8.90
2018-03-11T17:54:01.333Z,8.77
2018-03-11T17:56:29.461Z,8.60
2018-03-11T17:58:57.639Z,9.30
2018-03-11T18:01:25.844Z,9.00
2018-03-11T18:03:53.896Z,9.43
2018-03-11T18:06:22.055Z,9.17
2018-03-11T18:08:50.213Z,9.60
2018-03-11T18:11:18.295Z,8.90
2018-03-11T18:13:46.466Z,9.00
2018-03-11T18:16:14.669Z,8.50
2018-03-11T18:18:42.882Z,10.00
2018-03-11T18:21:11.018Z,8.70
2018-03-11T18:23:39.136Z,9.80
2018-03-11T18:26:07.332Z,9.37
2018-03-11T18:28:35.431Z,9.70
2018-03-11T18:31:03.636Z,9.53
2018-03-11T18:33:31.749Z,9.50
2018-03-11T18:35:59.966Z,9.40
2018-03-11T18:38:28.083Z,10.70
2018-03-11T18:40:56.955Z,9.33
2018-03-11T18:43:25.139Z,9.53
2018-03-11T18:45:53.266Z,9.80
2018-03-11T18:48:22.167Z,8.70
2018-03-11T18:50:51.059Z,9.43
2018-03-11T18:53:19.167Z,10.70
2018-03-11T18:55:47.282Z,10.57
2018-03-11T18:58:15.518Z,10.07
2018-03-11T19:00:43.633Z,10.40
2018-03-11T19:03:11.780Z,10.20
2018-03-11T19:05:39.891Z,10.10
2018-03-11T19:08:08.067Z,10.23
2018-03-11T19:10:36.987Z,10.90
2018-03-11T19:13:05.165Z,9.67
2018-03-11T19:15:34.037Z,11.30
2018-03-11T19:18:02.185Z,9.60
2018-03-11T19:20:31.115Z,9.23
2018-03-11T19:22:59.226Z,10.87
2018-03-11T19:25:28.117Z,10.90
2018-03-11T19:27:56.222Z,10.53
2018-03-11T19:30:24.366Z,11.87
2018-03-11T19:32:52.555Z,11.10
2018-03-11T19:35:20.689Z,11.37
2018-03-11T19:37:48.847Z,12.60
2018-03-11T19:40:16.993Z,13.13
2018-03-11T19:42:45.115Z,13.20
2018-03-11T19:45:13.286Z,12.70
2018-03-11T19:47:41.504Z,12.07
2018-03-11T19:50:10.402Z,12.30
2018-03-11T19:52:38.588Z,13.20
2018-03-11T19:55:07.529Z,13.80
2018-03-11T19:57:35.631Z,13.50
2018-03-11T20:00:03.808Z,13.83
2018-03-11T20:02:32.056Z,13.00
2018-03-11T20:05:00.935Z,13.57
2018-03-11T20:07:29.058Z,12.90
2018-03-11T20:09:57.168Z,13.30
2018-03-11T20:12:25.310Z,13.37
2018-03-11T20:14:53.431Z,14.00
2018-03-11T20:17:21.558Z,14.50
2018-03-11T20:19:49.753Z,13.10
2018-03-11T20:22:17.890Z,13.10
2018-03-11T20:24:46.008Z,13.90
2018-03-11T20:27:14.130Z,12.77
2018-03-11T20:29:42.289Z,13.80
2018-03-11T20:32:10.678Z,13.10
2018-03-11T20:34:38.776Z,14.10
2018-03-11T20:37:06.878Z,15.00
2018-03-11T20:39:35.090Z,15.40
2018-03-11T20:42:03.225Z,15.83
2018-03-11T20:44:31.407Z,15.93
2018-03-11T20:47:00.295Z,15.60
2018-03-11T20:49:28.428Z,15.57
2018-03-11T20:51:56.542Z,18.40
2018-03-11T20:54:24.662Z,17.07
2018-03-11T20:56:52.881Z,17.23
2018-03-11T20:59:20.970Z,17.07
2018-03-11T21:01:49.192Z,17.57
2018-03-11T21:04:17.431Z,16.27
2018-03-11T21:06:45.545Z,16.93
2018-03-11T21:09:13.662Z,17.30
2018-03-11T21:11:41.802Z,18.13
2018-03-11T21:14:09.967Z,18.80
2018-03-11T21:16:38.044Z,17.63
2018-03-11T21:19:06.248Z,17.60
2018-03-11T21:21:34.341Z,17.80
2018-03-11T21:24:02.465Z,17.67
2018-03-11T21:26:30.832Z,16.03
2018-03-11T21:28:59.000Z,17.43
2018-03-11T21:31:27.125Z,17.17
2018-03-11T21:33:55.305Z,18.23
2018-03-11T21:36:23.428Z,17.30
2018-03-11T21:38:51.523Z,18.30
2018-03-11T21:41:19.663Z,19.50
2018-03-11T21:43:47.803Z,18.43
2018-03-11T21:46:15.945Z,19.03
2018-03-11T21:48:44.058Z,19.17
2018-03-11T21:51:12.374Z,21.20
2018-03-11T21:53:41.321Z,18.97
2018-03-11T21:56:09.590Z,19.40
2018-03-11T21:58:37.633Z,20.80
2018-03-11T22:01:05.744Z,18.93
2018-03-11T22:03:33.861Z,19.60
2018-03-11T22:06:02.009Z,19.60
2018-03-11T22:08:30.122Z,19.17
2018-03-11T22:10:58.257Z,18.57
2018-03-11T22:13:26.367Z,20.30
2018-03-11T22:15:54.475Z,20.10
2018-03-11T22:18:22.595Z,19.87
2018-03-11T22:20:50.752Z,20.87
2018-03-11T22:23:18.906Z,21.80
2018-03-11T22:25:47.003Z,18.93
2018-03-11T22:28:15.204Z,20.70
2018-03-11T22:30:43.299Z,21.00
2018-03-11T22:33:11.443Z,20.27
2018-03-11T22:35:39.655Z,20.50
2018-03-11T22:38:07.771Z,21.00
2018-03-11T22:40:36.668Z,20.33
2018-03-11T22:43:05.533Z,21.30
2018-03-11T22:45:33.750Z,19.07
2018-03-11T22:48:02.658Z,20.20
2018-03-11T22:50:30.799Z,20.80
2018-03-11T22:52:58.927Z,20.70
2018-03-11T22:55:27.061Z,21.50
2018-03-11T22:57:55.171Z,21.33
2018-03-11T23:00:23.322Z,21.60
2018-03-11T23:02:51.413Z,22.77
2018-03-11T23:05:19.506Z,22.87
2018-03-11T23:07:47.614Z,23.20
2018-03-11T23:10:15.730Z,22.27
2018-03-11T23:12:43.932Z,22.17
2018-03-11T23:15:12.024Z,22.50
2018-03-11T23:17:40.142Z,23.60
2018-03-11T23:20:08.251Z,21.70
2018-03-11T23:22:37.147Z,22.37
2018-03-11T23:25:05.276Z,23.07
2018-03-11T23:27:33.380Z,23.07
2018-03-11T23:30:01.500Z,23.00
2018-03-11T23:32:29.942Z,23.90
2018-03-11T23:34:58.079Z,23.30
2018-03-11T23:37:26.171Z,23.33
2018-03-11T23:39:54.329Z,23.23
2018-03-11T23:42:22.477Z,24.30
2018-03-11T23:44:50.603Z,25.77
2018-03-11T23:47:18.779Z,24.87
2018-03-11T23:49:46.957Z,24.80
2018-03-11T23:52:15.056Z,24.60
2018-03-11T23:54:43.240Z,25.10
2018-03-11T23:57:11.354Z,25.03
2018-03-11T23:59:40.257Z,26.73
